Time,TemperatureF,DewpointF,PressureIn,WindDirection,WindDirectionDegrees,WindSpeedMPH,WindSpeedGustMPH,Humidity,HourlyPrecipIn,Conditions,Clouds,dailyrainin,SoftwareType,DateUTC
2013-02-20 08:01:00,21.6,13.7,29.84,WSW,247,3.2,-999.0,71,-99.99,,,0.00,Acu-Link.com,2013-02-20 13:01:00,
2013-02-20 08:16:00,22.6,15.0,29.84,NNW,337,1.1,-999.0,72,-99.99,,,0.00,Acu-Link.com,2013-02-20 13:16:00,
2013-02-20 08:31:00,22.5,14.9,29.84,WSW,247,2.7,-999.0,72,-99.99,,,0.00,Acu-Link.com,2013-02-20 13:31:00,
2013-02-20 08:47:00,23.2,15.2,29.84,West,270,7.3,-999.0,71,-99.99,,,0.00,Acu-Link.com,2013-02-20 13:47:00,
2013-02-20 09:02:00,24.8,16.4,29.85,West,270,5.3,-999.0,70,-99.99,,,0.00,Acu-Link.com,2013-02-20 14:02:00,
2013-02-20 09:19:00,23.2,15.9,29.85,SW,225,7.8,-999.0,73,-99.99,,,0.00,Acu-Link.com,2013-02-20 14:19:00,
2013-02-20 09:34:00,23.5,15.8,29.84,WSW,247,5.3,-999.0,72,-99.99,,,0.00,Acu-Link.com,2013-02-20 14:34:00,
2013-02-20 09:49:00,23.5,15.5,29.84,SSW,202,3.2,-999.0,71,-99.99,,,0.00,Acu-Link.com,2013-02-20 14:49:00,
2013-02-20 10:04:00,23.9,15.6,29.84,West,270,3.7,-999.0,70,-99.99,,,0.00,Acu-Link.com,2013-02-20 15:04:00,
2013-02-20 10:19:00,24.1,15.8,29.83,West,270,4.2,-999.0,70,-99.99,,,0.00,Acu-Link.com,2013-02-20 15:19:00,
2013-02-20 10:35:00,24.4,15.4,29.84,SW,225,4.7,-999.0,68,-99.99,,,0.00,Acu-Link.com,2013-02-20 15:35:00,
2013-02-20 10:50:00,24.8,15.8,29.85,SSW,202,6.3,-999.0,68,-99.99,,,0.00,Acu-Link.com,2013-02-20 15:50:00,
2013-02-20 11:09:00,25.3,15.6,29.83,SSW,202,4.7,-999.0,66,-99.99,,,0.00,Acu-Link.com,2013-02-20 16:09:00,
2013-02-20 11:24:00,25.9,15.8,29.84,NNW,337,5.3,-999.0,65,-99.99,,,0.00,Acu-Link.com,2013-02-20 16:24:00,
2013-02-20 11:39:00,27.1,16.6,29.85,West,270,6.8,-999.0,64,-99.99,,,0.00,Acu-Link.com,2013-02-20 16:39:00,
2013-02-20 12:20:00,27.0,16.1,29.85,WSW,247,5.3,-999.0,63,-99.99,,,0.00,Acu-Link.com,2013-02-20 17:20:00,
2013-02-20 12:35:00,27.7,14.5,29.84,West,270,7.3,-999.0,57,-99.99,,,0.00,Acu-Link.com,2013-02-20 17:35:00,
2013-02-20 12:52:00,27.9,14.7,29.83,West,270,9.4,-999.0,57,-99.99,,,0.00,Acu-Link.com,2013-02-20 17:52:00,
2013-02-20 15:34:00,27.5,14.7,29.89,West,270,4.2,-999.0,58,-99.99,,,0.00,Acu-Link.com,2013-02-20 20:34:00,
2013-02-20 15:50:00,27.0,14.2,29.90,West,270,7.3,-999.0,58,-99.99,,,0.00,Acu-Link.com,2013-02-20 20:50:00,
2013-02-20 16:07:00,25.2,12.9,29.90,WSW,247,8.9,-999.0,59,-99.99,,,0.00,Acu-Link.com,2013-02-20 21:07:00,
2013-02-20 16:22:00,25.5,13.2,29.90,WNW,292,6.8,-999.0,59,-99.99,,,0.00,Acu-Link.com,2013-02-20 21:22:00,
2013-02-20 16:37:00,25.3,13.8,29.91,WSW,247,6.3,-999.0,61,-99.99,,,0.00,Acu-Link.com,2013-02-20 21:37:00,
2013-02-20 16:52:00,25.0,13.1,29.91,WNW,292,4.2,-999.0,60,-99.99,,,0.00,Acu-Link.com,2013-02-20 21:52:00,
2013-02-20 17:09:00,24.6,13.1,29.92,West,270,7.8,-999.0,61,-99.99,,,0.00,Acu-Link.com,2013-02-20 22:09:00,
2013-02-20 17:24:00,24.3,13.9,29.92,West,270,4.2,-999.0,64,-99.99,,,0.00,Acu-Link.com,2013-02-20 22:24:00,
2013-02-20 17:40:00,23.9,13.2,29.94,WNW,292,7.8,-999.0,63,-99.99,,,0.00,Acu-Link.com,2013-02-20 22:40:00,
2013-02-20 17:55:00,23.7,13.0,29.94,SW,225,3.2,-999.0,63,-99.99,,,0.00,Acu-Link.com,2013-02-20 22:55:00,
2013-02-20 18:10:00,23.5,13.1,29.96,WSW,247,7.3,-999.0,64,-99.99,,,0.00,Acu-Link.com,2013-02-20 23:10:00,
2013-02-20 18:25:00,23.5,13.5,29.97,WSW,247,3.7,-999.0,65,-99.99,,,0.00,Acu-Link.com,2013-02-20 23:25:00,
2013-02-20 18:41:00,23.4,13.4,29.97,West,270,5.8,-999.0,65,-99.99,,,0.00,Acu-Link.com,2013-02-20 23:41:00,
2013-02-20 18:56:00,23.0,13.7,29.97,West,270,5.3,-999.0,67,-99.99,,,0.00,Acu-Link.com,2013-02-20 23:56:00,
2013-02-20 19:11:00,22.8,12.5,29.98,North,0,4.7,-999.0,64,-99.99,,,0.00,Acu-Link.com,2013-02-21 00:11:00,
2013-02-20 19:26:00,22.5,12.9,29.99,West,270,6.3,-999.0,66,-99.99,,,0.00,Acu-Link.com,2013-02-21 00:26:00,
2013-02-20 19:41:00,22.5,12.9,29.97,WSW,247,7.8,-999.0,66,-99.99,,,0.00,Acu-Link.com,2013-02-21 00:41:00,
2013-02-20 19:56:00,21.7,12.5,29.96,West,270,4.7,-999.0,67,-99.99,,,0.00,Acu-Link.com,2013-02-21 00:56:00,
2013-02-20 20:12:00,21.4,12.2,29.95,SSW,202,3.7,-999.0,67,-99.99,,,0.00,Acu-Link.com,2013-02-21 01:12:00,
2013-02-20 20:27:00,21.2,12.0,29.96,SSW,202,3.2,-999.0,67,-99.99,,,0.00,Acu-Link.com,2013-02-21 01:27:00,
2013-02-20 20:42:00,21.4,12.2,29.97,SW,225,6.3,-999.0,67,-99.99,,,0.00,Acu-Link.com,2013-02-21 01:42:00,
2013-02-20 20:57:00,21.6,12.4,29.97,SSW,202,2.7,-999.0,67,-99.99,,,0.00,Acu-Link.com,2013-02-21 01:57:00,
2013-02-20 21:12:00,21.9,12.7,29.98,West,270,3.7,-999.0,67,-99.99,,,0.00,Acu-Link.com,2013-02-21 02:12:00,
2013-02-20 21:27:00,21.9,12.7,29.99,West,270,7.3,-999.0,67,-99.99,,,0.00,Acu-Link.com,2013-02-21 02:27:00,
2013-02-20 21:42:00,21.9,13.0,29.99,West,270,3.7,-999.0,68,-99.99,,,0.00,Acu-Link.com,2013-02-21 02:42:00,
2013-02-20 21:57:00,21.7,12.8,29.98,West,270,3.7,-999.0,68,-99.99,,,0.00,Acu-Link.com,2013-02-21 02:57:00,
2013-02-20 22:12:00,21.2,12.6,29.98,WNW,292,4.7,-999.0,69,-99.99,,,0.00,Acu-Link.com,2013-02-21 03:12:00,
2013-02-20 22:28:00,21.6,13.4,29.98,SW,225,2.7,-999.0,70,-99.99,,,0.00,Acu-Link.com,2013-02-21 03:28:00,
2013-02-20 22:43:00,21.7,13.5,29.99,SSW,202,4.2,-999.0,70,-99.99,,,0.00,Acu-Link.com,2013-02-21 03:43:00,
2013-02-20 22:58:00,21.9,13.6,29.99,WSW,247,2.7,-999.0,70,-99.99,,,0.00,Acu-Link.com,2013-02-21 03:58:00,
2013-02-20 23:13:00,21.9,13.6,29.99,West,270,4.7,-999.0,70,-99.99,,,0.00,Acu-Link.com,2013-02-21 04:13:00,
2013-02-20 23:28:00,21.7,13.8,29.99,SSW,202,4.7,-999.0,71,-99.99,,,0.00,Acu-Link.com,2013-02-21 04:28:00,
2013-02-20 23:43:00,21.9,14.0,29.99,South,180,3.7,-999.0,71,-99.99,,,0.00,Acu-Link.com,2013-02-21 04:43:00,
2013-02-20 23:58:00,21.9,14.3,29.98,West,270,4.2,-999.0,72,-99.99,,,0.00,Acu-Link.com,2013-02-21 04:58:00,